Time;durP1;ratioP1;P1;durP2;ratioP2;P2;SDS_P1;SDS_P2;PMS_P1;PMS_P2;Temp;Humidity;BMP_temperature;BMP_pressure;BME280_temperature;BME280_humidity;BME280_pressure;Samples;Min_cycle;Max_cycle;Signal;HPM_P1;HPM_P2
2021/01/27 00:01:20;;;;;;;36.97;19.27;;;1.20;91.20;;;;;;4976990;28;20200;-80
2021/01/27 00:03:49;;;;;;;38.53;21.03;;;1.30;91.20;;;;;;4974482;28;20227;-79
2021/01/27 00:06:16;;;;;;;37.20;18.43;;;1.30;91.10;;;;;;4976716;28;20205;-79
2021/01/27 00:08:45;;;;;;;37.23;19.37;;;1.20;91.10;;;;;;4968407;28;20669;-81
2021/01/27 00:11:13;;;;;;;35.93;19.57;;;1.20;91.30;;;;;;4977948;28;20207;-81
2021/01/27 00:13:41;;;;;;;37.67;19.60;;;1.30;91.20;;;;;;4966874;28;20374;-80
2021/01/27 00:16:09;;;;;;;36.70;19.40;;;1.30;91.20;;;;;;4975714;28;20612;-80
2021/01/27 00:18:37;;;;;;;38.97;20.50;;;1.30;91.30;;;;;;4979745;28;20549;-80
2021/01/27 00:21:05;;;;;;;36.90;20.17;;;1.30;91.20;;;;;;4978844;28;20296;-80
2021/01/27 00:23:32;;;;;;;39.67;20.40;;;1.30;91.30;;;;;;4985887;28;20204;-79
2021/01/27 00:26:00;;;;;;;39.00;20.50;;;1.30;91.50;;;;;;4970602;28;20479;-79
2021/01/27 00:28:28;;;;;;;37.83;19.93;;;1.20;91.60;;;;;;4984205;28;20209;-79
2021/01/27 00:30:55;;;;;;;38.60;19.50;;;1.30;91.70;;;;;;4991601;28;20188;-80
2021/01/27 00:33:23;;;;;;;37.60;20.73;;;1.30;91.70;;;;;;4982273;28;20223;-78
2021/01/27 00:35:52;;;;;;;38.07;19.97;;;1.20;91.70;;;;;;4982548;28;20188;-79
2021/01/27 00:38:21;;;;;;;37.93;21.03;;;1.20;91.70;;;;;;4988578;28;20229;-79
2021/01/27 00:40:51;;;;;;;37.83;19.93;;;1.20;91.80;;;;;;4985585;28;20251;-82
2021/01/27 00:43:19;;;;;;;38.93;21.50;;;1.30;91.70;;;;;;4993743;28;20196;-81
2021/01/27 00:45:48;;;;;;;41.70;22.50;;;1.30;91.70;;;;;;4985813;28;20200;-82
2021/01/27 00:48:16;;;;;;;36.67;20.67;;;1.30;91.60;;;;;;4982073;28;20506;-80
2021/01/27 00:50:44;;;;;;;39.47;20.57;;;1.20;91.70;;;;;;4994714;28;20292;-83
2021/01/27 00:53:12;;;;;;;40.03;20.87;;;1.30;91.70;;;;;;4984378;28;20202;-79
2021/01/27 00:55:39;;;;;;;40.40;21.93;;;1.30;91.70;;;;;;4987407;28;20475;-80
2021/01/27 00:58:07;;;;;;;36.57;21.37;;;1.30;91.70;;;;;;4990194;28;20279;-79
2021/01/27 01:00:36;;;;;;;37.03;20.67;;;1.30;91.70;;;;;;4977306;28;20319;-79
2021/01/27 01:03:10;;;;;;;39.47;21.43;;;1.30;91.80;;;;;;4981183;28;20351;-79
2021/01/27 01:05:39;;;;;;;39.10;20.53;;;1.20;91.90;;;;;;4988509;28;20232;-80
2021/01/27 01:08:09;;;;;;;42.43;22.07;;;1.30;91.90;;;;;;4964156;28;20266;-82
2021/01/27 01:10:39;;;;;;;42.43;22.63;;;1.30;91.80;;;;;;4992399;28;20204;-80
2021/01/27 01:13:10;;;;;;;38.00;19.83;;;1.30;91.80;;;;;;4975637;28;20288;-81
2021/01/27 01:15:37;;;;;;;38.60;21.40;;;1.30;91.80;;;;;;4985237;28;20433;-79
2021/01/27 01:18:05;;;;;;;41.30;21.43;;;1.20;91.90;;;;;;4982277;28;20920;-82
2021/01/27 01:20:34;;;;;;;36.93;20.10;;;1.20;91.90;;;;;;4979407;28;20433;-80
2021/01/27 01:23:03;;;;;;;38.67;21.83;;;1.20;91.90;;;;;;4992579;28;20419;-80
2021/01/27 01:25:32;;;;;;;39.70;21.73;;;1.20;92.00;;;;;;4977936;28;20357;-80
2021/01/27 01:28:02;;;;;;;39.83;20.97;;;1.20;92.00;;;;;;4985007;28;20196;-78
2021/01/27 01:30:32;;;;;;;40.80;22.10;;;1.30;92.10;;;;;;4985614;28;20188;-80
2021/01/27 01:33:03;;;;;;;38.77;21.17;;;1.30;91.90;;;;;;4971976;28;20222;-79
2021/01/27 01:35:31;;;;;;;37.33;19.60;;;1.30;91.90;;;;;;4985722;28;20200;-82
2021/01/27 01:38:00;;;;;;;41.23;20.57;;;1.30;91.90;;;;;;4968033;28;20215;-81
2021/01/27 01:40:30;;;;;;;37.17;21.17;;;1.40;91.80;;;;;;4973062;28;20310;-81
2021/01/27 01:43:03;;;;;;;38.87;20.97;;;1.30;91.70;;;;;;4977715;28;20196;-80
2021/01/27 01:45:33;;;;;;;36.70;20.17;;;1.40;91.70;;;;;;4957790;28;20204;-81
2021/01/27 01:48:04;;;;;;;37.40;21.33;;;1.30;91.80;;;;;;4990504;28;20176;-78
2021/01/27 01:50:32;;;;;;;36.03;19.23;;;1.30;91.80;;;;;;4973312;28;20275;-80
2021/01/27 01:53:01;;;;;;;36.53;19.23;;;1.30;91.90;;;;;;4963408;28;20193;-80
2021/01/27 01:55:29;;;;;;;38.50;21.20;;;1.40;91.80;;;;;;4973399;28;20832;-78
2021/01/27 01:57:56;;;;;;;39.87;21.07;;;1.30;91.80;;;;;;4971236;28;20330;-79
2021/01/27 02:00:28;;;;;;;33.27;18.27;;;1.30;91.90;;;;;;4972005;28;20219;-81
2021/01/27 02:02:56;;;;;;;37.93;20.93;;;1.40;91.80;;;;;;4970048;28;22495;-80
2021/01/27 02:05:26;;;;;;;37.83;20.40;;;1.40;91.60;;;;;;4969211;28;20265;-78
2021/01/27 02:07:55;;;;;;;35.40;20.07;;;1.40;91.80;;;;;;4980432;28;20184;-80
2021/01/27 02:10:24;;;;;;;36.07;20.77;;;1.40;91.80;;;;;;4973313;28;20208;-81
2021/01/27 02:13:17;;;;;;;36.60;20.83;;;1.40;91.70;;;;;;4972746;28;20203;-80
2021/01/27 02:16:06;;;;;;;37.10;20.60;;;1.30;91.70;;;;;;4976376;28;20351;-80
2021/01/27 02:18:51;;;;;;;33.60;19.37;;;1.30;91.70;;;;;;4968643;28;20188;-81
2021/01/27 02:21:50;;;;;;;36.17;19.50;;;1.40;91.80;;;;;;4977074;28;20228;-80
2021/01/27 02:24:52;;;;;;;39.13;20.10;;;1.30;91.80;;;;;;4968082;28;20240;-80
2021/01/27 02:27:25;;;;;;;35.27;19.60;;;1.40;91.80;;;;;;4948434;28;20236;-80
2021/01/27 02:30:11;;;;;;;40.87;20.33;;;1.40;91.70;;;;;;4973637;28;20200;-82
2021/01/27 02:33:07;;;;;;;34.60;19.17;;;1.40;91.80;;;;;;4973666;28;20211;-81
2021/01/27 02:35:38;;;;;;;34.87;20.30;;;1.30;91.80;;;;;;4978513;28;20247;-81
2021/01/27 02:38:11;;;;;;;36.70;19.90;;;1.30;91.90;;;;;;4976392;28;20203;-79
2021/01/27 02:40:44;;;;;;;38.00;20.47;;;1.30;91.90;;;;;;4979351;28;20232;-81
2021/01/27 02:43:15;;;;;;;35.40;20.20;;;1.30;91.90;;;;;;4968030;28;20291;-81
2021/01/27 02:45:45;;;;;;;37.33;20.10;;;1.30;92.00;;;;;;4960217;28;20203;-81
2021/01/27 02:48:18;;;;;;;33.20;18.43;;;1.30;92.00;;;;;;4974822;28;20196;-80
2021/01/27 02:50:54;;;;;;;37.20;19.53;;;1.30;92.00;;;;;;4966679;28;20215;-80
2021/01/27 02:53:25;;;;;;;33.07;18.77;;;1.30;92.00;;;;;;4970828;28;20200;-79
2021/01/27 02:55:59;;;;;;;32.67;19.00;;;1.30;91.90;;;;;;4963699;28;20192;-80
2021/01/27 02:58:36;;;;;;;33.17;19.13;;;1.30;91.80;;;;;;4963538;28;20203;-80
2021/01/27 03:01:07;;;;;;;35.83;18.63;;;1.30;91.80;;;;;;4971761;28;20219;-80
2021/01/27 03:03:40;;;;;;;32.87;18.07;;;1.30;91.80;;;;;;4971328;28;20193;-81
2021/01/27 03:06:12;;;;;;;30.47;17.73;;;1.30;91.70;;;;;;4961702;28;20193;-80
2021/01/27 03:08:45;;;;;;;36.83;18.93;;;1.30;91.70;;;;;;4972944;28;20191;-80
2021/01/27 03:11:18;;;;;;;29.63;18.40;;;1.30;91.70;;;;;;4968949;28;20615;-80
2021/01/27 03:13:47;;;;;;;28.40;17.13;;;1.40;91.60;;;;;;4973889;28;20200;-80
2021/01/27 03:16:21;;;;;;;29.33;16.80;;;1.30;91.50;;;;;;4980681;28;20216;-78
2021/01/27 03:18:57;;;;;;;27.57;17.17;;;1.40;91.40;;;;;;4963676;28;20334;-81
2021/01/27 03:21:33;;;;;;;27.03;15.60;;;1.30;91.40;;;;;;4976035;28;20212;-80
2021/01/27 03:24:07;;;;;;;27.00;16.07;;;1.40;91.20;;;;;;4969484;28;20474;-81
2021/01/27 03:26:43;;;;;;;29.37;16.17;;;1.40;91.10;;;;;;4960434;28;20604;-80
2021/01/27 03:29:17;;;;;;;27.57;15.60;;;1.40;91.20;;;;;;4987331;28;20600;-80
2021/01/27 03:31:44;;;;;;;25.00;15.03;;;1.40;91.10;;;;;;4982969;28;20292;-80
2021/01/27 03:34:20;;;;;;;25.67;14.90;;;1.40;91.10;;;;;;4985730;28;20203;-80
2021/01/27 03:36:54;;;;;;;28.20;15.63;;;1.40;91.20;;;;;;4983582;28;20277;-81
2021/01/27 03:39:26;;;;;;;26.73;16.37;;;1.40;91.10;;;;;;4975932;28;20202;-79
2021/01/27 03:41:59;;;;;;;23.20;15.07;;;1.40;91.00;;;;;;4984284;28;20267;-81
2021/01/27 03:44:33;;;;;;;23.93;14.47;;;1.40;91.00;;;;;;4960599;28;20213;-81
2021/01/27 03:47:05;;;;;;;23.93;13.47;;;1.40;90.90;;;;;;4971381;28;20393;-81
2021/01/27 03:49:36;;;;;;;27.03;14.40;;;1.40;90.90;;;;;;4978008;28;20259;-79
2021/01/27 03:52:12;;;;;;;22.23;14.17;;;1.30;90.90;;;;;;4962757;28;20229;-80
2021/01/27 03:54:45;;;;;;;23.63;14.30;;;1.40;90.90;;;;;;4972107;28;20208;-80
2021/01/27 03:57:18;;;;;;;30.23;14.33;;;1.40;90.90;;;;;;4972804;28;20205;-80
2021/01/27 03:59:46;;;;;;;23.47;13.40;;;1.30;90.90;;;;;;4982099;28;20283;-80
2021/01/27 04:02:18;;;;;;;21.47;13.63;;;1.40;90.80;;;;;;4991735;28;20210;-79
2021/01/27 04:04:48;;;;;;;24.00;13.90;;;1.50;90.80;;;;;;4986552;28;20296;-80
2021/01/27 04:07:17;;;;;;;23.60;13.70;;;1.50;90.70;;;;;;4970486;28;20212;-80
2021/01/27 04:09:45;;;;;;;23.97;13.57;;;1.50;90.70;;;;;;4980243;28;20206;-80
2021/01/27 04:12:13;;;;;;;23.33;13.43;;;1.40;90.70;;;;;;4974175;28;20304;-80
2021/01/27 04:14:40;;;;;;;21.37;13.07;;;1.40;90.70;;;;;;4989028;28;20236;-80
2021/01/27 04:17:13;;;;;;;21.73;13.10;;;1.50;90.80;;;;;;4970281;28;20199;-80
2021/01/27 04:19:42;;;;;;;19.60;12.70;;;1.40;90.70;;;;;;4962970;28;20623;-80
2021/01/27 04:22:09;;;;;;;19.00;11.93;;;1.40;90.70;;;;;;4974311;28;20718;-79
2021/01/27 04:24:38;;;;;;;21.20;12.70;;;1.50;90.70;;;;;;4972102;28;20985;-79
2021/01/27 04:27:05;;;;;;;20.23;12.73;;;1.40;90.80;;;;;;4971604;28;20200;-81
2021/01/27 04:29:33;;;;;;;19.10;11.70;;;1.40;90.70;;;;;;4975601;28;20197;-80
2021/01/27 04:32:00;;;;;;;18.63;12.13;;;1.40;90.60;;;;;;4967813;28;20486;-79
2021/01/27 04:34:28;;;;;;;22.30;12.67;;;1.40;90.60;;;;;;4976516;28;20200;-79
2021/01/27 04:36:55;;;;;;;21.07;12.73;;;1.40;90.80;;;;;;4971347;28;20275;-78
2021/01/27 04:39:23;;;;;;;17.20;11.67;;;1.40;90.70;;;;;;4973025;28;20203;-79
2021/01/27 04:41:53;;;;;;;18.23;11.73;;;1.40;90.70;;;;;;4966074;28;20232;-78
2021/01/27 04:44:21;;;;;;;17.03;11.77;;;1.40;90.70;;;;;;4964488;28;20213;-81
2021/01/27 04:47:00;;;;;;;19.73;11.47;;;1.40;90.60;;;;;;4977679;28;20195;-79
2021/01/27 04:49:34;;;;;;;19.97;12.17;;;1.40;90.90;;;;;;4968232;28;20201;-80
2021/01/27 04:52:08;;;;;;;17.97;12.10;;;1.40;91.00;;;;;;4975258;28;20258;-80
2021/01/27 04:54:56;;;;;;;19.07;11.90;;;1.30;91.10;;;;;;4976080;28;20344;-80
2021/01/27 04:57:34;;;;;;;19.20;11.57;;;1.30;91.10;;;;;;4983087;28;20388;-80
2021/01/27 05:00:14;;;;;;;16.73;11.50;;;1.30;91.20;;;;;;4995981;28;20347;-80
2021/01/27 05:02:53;;;;;;;16.90;11.43;;;1.30;91.20;;;;;;4986424;28;20286;-78
2021/01/27 05:05:26;;;;;;;18.53;10.77;;;1.30;91.20;;;;;;4966808;28;20226;-79
2021/01/27 05:08:01;;;;;;;16.57;10.53;;;1.30;91.30;;;;;;4981021;28;20208;-81
2021/01/27 05:10:37;;;;;;;16.90;10.80;;;1.30;91.20;;;;;;4982319;28;20282;-81
2021/01/27 05:13:12;;;;;;;18.03;10.80;;;1.30;91.20;;;;;;5007973;28;20216;-81
2021/01/27 05:15:40;;;;;;;19.80;10.83;;;1.30;91.30;;;;;;4974203;28;20462;-78
2021/01/27 05:18:11;;;;;;;16.13;10.27;;;1.20;91.50;;;;;;4974011;28;20219;-79
2021/01/27 05:20:38;;;;;;;19.40;11.63;;;1.20;91.50;;;;;;4972041;28;20219;-77
2021/01/27 05:23:06;;;;;;;17.90;11.10;;;1.10;91.50;;;;;;4961433;28;20424;-80
2021/01/27 05:25:37;;;;;;;17.67;10.63;;;1.30;91.70;;;;;;4994611;28;20200;-79
2021/01/27 05:28:12;;;;;;;20.70;10.23;;;1.10;91.60;;;;;;4981890;28;20188;-81
2021/01/27 05:30:49;;;;;;;17.97;11.37;;;1.10;91.60;;;;;;4989537;28;20403;-80
2021/01/27 05:33:18;;;;;;;17.90;10.67;;;1.20;91.60;;;;;;4979307;28;20208;-78
2021/01/27 05:35:46;;;;;;;14.80;9.03;;;1.10;91.40;;;;;;4962788;28;20200;-79
2021/01/27 05:38:27;;;;;;;15.73;9.30;;;1.10;91.40;;;;;;4975974;28;20204;-79
2021/01/27 05:41:05;;;;;;;14.67;9.47;;;1.20;91.00;;;;;;4955914;28;20587;-79
2021/01/27 05:43:35;;;;;;;17.07;9.30;;;1.20;91.00;;;;;;4973211;28;20561;-78
2021/01/27 05:46:12;;;;;;;15.10;9.10;;;1.20;90.90;;;;;;4966402;28;20245;-81
2021/01/27 05:48:49;;;;;;;15.53;8.57;;;1.20;90.80;;;;;;4963009;28;20219;-80
2021/01/27 05:51:28;;;;;;;12.10;8.37;;;1.10;90.60;;;;;;4975365;28;20208;-81
2021/01/27 05:53:56;;;;;;;14.27;8.50;;;1.10;90.60;;;;;;4955757;28;20214;-81
2021/01/27 05:56:26;;;;;;;11.17;7.57;;;1.10;90.60;;;;;;4981566;28;20693;-79
2021/01/27 05:59:03;;;;;;;13.93;8.00;;;1.20;90.30;;;;;;4966759;28;20309;-79
2021/01/27 06:01:37;;;;;;;10.87;7.30;;;1.20;90.00;;;;;;4968803;28;20545;-79
2021/01/27 06:04:21;;;;;;;12.80;7.90;;;1.20;89.70;;;;;;4972132;28;20200;-80
2021/01/27 06:06:59;;;;;;;9.60;7.00;;;1.20;89.50;;;;;;4966524;28;20219;-80
2021/01/27 06:09:40;;;;;;;10.77;6.60;;;1.10;89.70;;;;;;4970143;28;20192;-81
2021/01/27 06:12:13;;;;;;;11.37;6.80;;;1.30;89.90;;;;;;4965100;28;20264;-79
2021/01/27 06:14:43;;;;;;;9.37;6.70;;;1.20;89.40;;;;;;4971236;28;20203;-81
2021/01/27 06:17:23;;;;;;;9.50;6.90;;;1.20;89.20;;;;;;4971484;28;20200;-80
2021/01/27 06:20:01;;;;;;;8.67;5.60;;;1.20;89.20;;;;;;4968705;28;20196;-81
2021/01/27 06:22:52;;;;;;;7.70;5.60;;;1.30;88.60;;;;;;4968177;28;20299;-78
2021/01/27 06:25:29;;;;;;;7.63;4.87;;;1.30;88.30;;;;;;4930058;28;20236;-82
2021/01/27 06:28:19;;;;;;;6.47;4.90;;;1.40;88.50;;;;;;4967164;28;20459;-79
2021/01/27 06:30:57;;;;;;;7.20;4.73;;;1.30;87.90;;;;;;4960422;28;20294;-80
2021/01/27 06:33:33;;;;;;;6.67;5.10;;;1.30;87.60;;;;;;4978991;28;20199;-79
2021/01/27 06:36:18;;;;;;;7.87;5.10;;;1.40;87.10;;;;;;4969281;28;20208;-80
2021/01/27 06:39:07;;;;;;;6.17;4.60;;;1.40;87.30;;;;;;4978969;28;20319;-81
2021/01/27 06:42:02;;;;;;;5.63;4.20;;;1.40;86.40;;;;;;4979832;28;20220;-79
2021/01/27 06:44:44;;;;;;;8.67;4.47;;;1.40;86.50;;;;;;4980590;28;20227;-80
2021/01/27 06:47:32;;;;;;;4.93;3.80;;;1.50;86.40;;;;;;4988382;28;20204;-81
2021/01/27 06:50:22;;;;;;;4.80;3.63;;;1.40;86.40;;;;;;4987116;28;20210;-80
2021/01/27 06:53:12;;;;;;;5.17;3.97;;;1.40;86.50;;;;;;5001723;28;20192;-77
2021/01/27 06:56:07;;;;;;;4.70;4.07;;;1.40;86.30;;;;;;4982457;28;20226;-81
2021/01/27 06:59:28;;;;;;;7.03;3.87;;;1.40;86.50;;;;;;4980673;28;20216;-79
2021/01/27 07:02:32;;;;;;;5.47;3.90;;;1.40;86.20;;;;;;4949134;28;20599;-82
2021/01/27 07:05:22;;;;;;;3.90;3.10;;;1.50;86.10;;;;;;4974276;28;20291;-80
2021/01/27 07:08:03;;;;;;;4.33;2.97;;;1.50;85.90;;;;;;4979205;28;20208;-81
2021/01/27 07:10:57;;;;;;;4.97;3.50;;;1.50;86.00;;;;;;4977457;28;20204;-80
2021/01/27 07:14:19;;;;;;;10.00;3.83;;;1.40;85.90;;;;;;4982095;28;20220;-80
2021/01/27 07:17:01;;;;;;;4.77;3.10;;;1.50;86.20;;;;;;4978287;28;20235;-81
2021/01/27 07:19:49;;;;;;;5.90;3.27;;;1.50;85.70;;;;;;4985171;28;20203;-79
2021/01/27 07:22:25;;;;;;;5.03;3.50;;;1.60;85.60;;;;;;4986370;28;20462;-79
2021/01/27 07:25:04;;;;;;;4.63;3.80;;;1.60;85.60;;;;;;4988727;28;20195;-81
2021/01/27 07:27:34;;;;;;;4.33;3.00;;;1.60;85.70;;;;;;4993773;28;20196;-80
2021/01/27 07:30:07;;;;;;;3.90;2.90;;;1.70;85.50;;;;;;4986737;28;20215;-81
2021/01/27 07:32:40;;;;;;;3.10;2.80;;;1.60;85.60;;;;;;4976471;28;20207;-80
2021/01/27 07:35:14;;;;;;;5.57;3.10;;;1.60;85.40;;;;;;4980106;28;20180;-83
2021/01/27 07:37:48;;;;;;;4.23;2.87;;;1.70;85.40;;;;;;4987757;28;20283;-80
2021/01/27 07:40:21;;;;;;;3.60;3.20;;;1.70;85.50;;;;;;4981058;28;20184;-79
2021/01/27 07:42:56;;;;;;;6.50;3.37;;;1.90;85.10;;;;;;4991271;28;20251;-81
2021/01/27 07:45:29;;;;;;;4.60;3.53;;;1.70;85.10;;;;;;4983408;28;20463;-81
2021/01/27 07:48:08;;;;;;;4.20;3.80;;;1.70;85.20;;;;;;4971015;28;20219;-80
2021/01/27 07:50:38;;;;;;;4.43;3.30;;;1.70;85.20;;;;;;4991553;28;20203;-78
2021/01/27 07:53:17;;;;;;;3.90;3.50;;;1.80;85.30;;;;;;4972538;28;20287;-80
2021/01/27 07:55:55;;;;;;;4.87;4.00;;;1.80;85.50;;;;;;4987919;28;20211;-78
2021/01/27 07:58:34;;;;;;;6.50;4.27;;;1.80;85.60;;;;;;4979266;28;20205;-79
2021/01/27 08:01:08;;;;;;;6.60;4.93;;;1.80;85.80;;;;;;4988765;28;20219;-80
2021/01/27 08:03:47;;;;;;;4.33;3.93;;;1.80;85.80;;;;;;4988094;28;20522;-80
2021/01/27 08:06:18;;;;;;;5.80;4.30;;;1.80;86.00;;;;;;4991322;28;20490;-81
2021/01/27 08:08:51;;;;;;;6.97;4.10;;;1.80;86.20;;;;;;4992559;28;20265;-79
2021/01/27 08:11:28;;;;;;;4.43;3.90;;;1.80;86.40;;;;;;4989605;28;20497;-81
2021/01/27 08:13:57;;;;;;;4.83;4.00;;;1.80;86.50;;;;;;4988602;28;20203;-79
2021/01/27 08:16:37;;;;;;;5.17;3.93;;;1.70;86.70;;;;;;4979561;28;20208;-82
2021/01/27 08:19:21;;;;;;;5.60;4.53;;;1.70;87.30;;;;;;4975543;28;20219;-78
2021/01/27 08:21:56;;;;;;;5.73;4.63;;;1.70;87.70;;;;;;4979718;28;21057;-77
2021/01/27 08:24:56;;;;;;;5.57;4.53;;;1.70;88.20;;;;;;4973057;28;20308;-80
2021/01/27 08:27:41;;;;;;;5.77;4.70;;;1.70;88.50;;;;;;4967631;28;20207;-82
2021/01/27 08:30:27;;;;;;;7.63;5.43;;;1.70;88.50;;;;;;4977247;28;20720;-80
2021/01/27 08:33:33;;;;;;;6.57;4.97;;;1.60;89.30;;;;;;4965691;28;20512;-80
2021/01/27 08:36:05;;;;;;;6.80;5.27;;;1.50;89.60;;;;;;4963754;28;20604;-79
2021/01/27 08:38:38;;;;;;;7.07;5.13;;;1.50;89.80;;;;;;4959761;28;20250;-80
2021/01/27 08:41:12;;;;;;;7.57;5.03;;;1.60;90.20;;;;;;4972493;28;20224;-80
2021/01/27 08:43:52;;;;;;;7.00;5.30;;;1.50;90.40;;;;;;4969182;28;20196;-80
2021/01/27 08:46:43;;;;;;;6.83;5.40;;;1.40;90.40;;;;;;4965881;28;20639;-80
2021/01/27 08:49:12;;;;;;;8.20;5.60;;;1.40;90.60;;;;;;4950675;28;20278;-81
2021/01/27 08:51:49;;;;;;;8.30;6.27;;;1.40;90.70;;;;;;4959656;28;20196;-79
2021/01/27 08:54:49;;;;;;;10.50;6.23;;;1.40;90.70;;;;;;4965653;28;20352;-80
2021/01/27 08:57:23;;;;;;;10.57;6.20;;;1.40;90.50;;;;;;4976265;28;20619;-80
2021/01/27 09:00:00;;;;;;;7.97;5.87;;;1.40;90.50;;;;;;4975473;28;20227;-79
2021/01/27 09:02:42;;;;;;;6.97;5.47;;;1.40;90.50;;;;;;4966109;28;20706;-79
2021/01/27 09:05:38;;;;;;;9.20;6.10;;;1.40;90.50;;;;;;4977419;28;20366;-78
2021/01/27 09:08:26;;;;;;;8.10;6.30;;;1.40;90.60;;;;;;4975267;28;20252;-77
2021/01/27 09:11:00;;;;;;;8.97;5.97;;;1.40;90.40;;;;;;4975542;28;20216;-76
2021/01/27 09:13:40;;;;;;;7.73;6.20;;;1.40;90.30;;;;;;4972440;28;20808;-76
2021/01/27 09:16:14;;;;;;;8.70;5.83;;;1.40;90.30;;;;;;4975365;28;20210;-76
2021/01/27 09:18:43;;;;;;;9.67;5.40;;;1.50;90.20;;;;;;4968040;28;20777;-78
2021/01/27 09:21:14;;;;;;;7.03;5.27;;;1.50;90.10;;;;;;4973748;28;20600;-76
2021/01/27 09:23:46;;;;;;;8.20;5.83;;;1.70;89.70;;;;;;4969814;28;20196;-77
2021/01/27 09:26:16;;;;;;;8.67;5.93;;;1.60;89.60;;;;;;4970567;28;20222;-78
2021/01/27 09:28:44;;;;;;;5.83;5.07;;;1.60;89.80;;;;;;4968092;28;20203;-80
2021/01/27 09:31:14;;;;;;;7.43;5.47;;;1.60;89.40;;;;;;4968526;28;20209;-79
2021/01/27 09:33:43;;;;;;;8.90;5.70;;;1.70;89.00;;;;;;4962664;28;20528;-79
2021/01/27 09:36:16;;;;;;;6.60;5.30;;;1.70;89.10;;;;;;4966359;28;20206;-80
2021/01/27 09:38:44;;;;;;;8.03;5.67;;;1.70;88.50;;;;;;4975588;28;20227;-78
2021/01/27 09:41:15;;;;;;;7.30;5.10;;;1.70;88.30;;;;;;4977577;28;20220;-79
2021/01/27 09:43:46;;;;;;;7.27;5.87;;;1.80;88.10;;;;;;4975824;28;20219;-78
2021/01/27 09:46:25;;;;;;;6.20;4.60;;;1.80;87.70;;;;;;4971899;28;20196;-79
2021/01/27 09:48:54;;;;;;;7.00;4.83;;;2.00;87.50;;;;;;4957867;28;20240;-77
2021/01/27 09:51:23;;;;;;;7.10;4.47;;;1.90;87.40;;;;;;4976730;28;20209;-78
2021/01/27 09:53:56;;;;;;;6.47;4.63;;;1.80;86.90;;;;;;4960340;28;20460;-78
2021/01/27 09:56:24;;;;;;;7.47;5.10;;;1.90;86.60;;;;;;4960362;28;20320;-79
2021/01/27 09:58:54;;;;;;;6.33;4.37;;;1.90;86.60;;;;;;4958490;28;20196;-80
2021/01/27 10:01:23;;;;;;;5.60;4.27;;;1.90;86.30;;;;;;4965738;28;20227;-78
2021/01/27 10:03:54;;;;;;;4.83;3.60;;;1.90;86.00;;;;;;4956872;28;20209;-78
2021/01/27 10:06:41;;;;;;;8.77;4.27;;;1.90;85.50;;;;;;4959394;28;20296;-78
2021/01/27 10:09:18;;;;;;;6.07;3.63;;;1.90;85.20;;;;;;4958948;28;20292;-80
2021/01/27 10:11:47;;;;;;;4.10;3.63;;;1.90;85.60;;;;;;4959113;28;20676;-79
2021/01/27 10:14:24;;;;;;;5.60;3.50;;;1.90;85.30;;;;;;4968412;28;20891;-77
2021/01/27 10:16:54;;;;;;;5.83;3.70;;;1.90;85.00;;;;;;4963351;28;20445;-78
2021/01/27 10:19:26;;;;;;;6.83;4.97;;;1.90;85.20;;;;;;4963561;28;20206;-80
2021/01/27 10:21:57;;;;;;;7.13;3.90;;;1.90;85.10;;;;;;4964834;28;20710;-78
2021/01/27 10:24:41;;;;;;;4.47;3.60;;;2.00;85.10;;;;;;4957177;28;20639;-77
2021/01/27 10:27:15;;;;;;;5.73;3.47;;;2.10;84.80;;;;;;4965426;28;20260;-80
2021/01/27 10:29:44;;;;;;;5.33;3.60;;;2.10;85.00;;;;;;4959899;28;20648;-80
2021/01/27 10:32:21;;;;;;;4.83;3.43;;;2.10;84.90;;;;;;4949398;28;20311;-78
2021/01/27 10:34:50;;;;;;;6.30;3.83;;;2.10;84.80;;;;;;4969661;28;20698;-78
2021/01/27 10:37:28;;;;;;;4.63;3.77;;;2.20;85.00;;;;;;4974294;28;20268;-78
2021/01/27 10:40:16;;;;;;;4.97;3.80;;;2.10;85.30;;;;;;4981893;28;20295;-81
2021/01/27 10:42:46;;;;;;;5.33;3.50;;;2.10;84.70;;;;;;4976889;28;20363;-79
2021/01/27 10:45:34;;;;;;;4.07;3.43;;;2.20;84.80;;;;;;4959602;28;20769;-78
2021/01/27 10:48:08;;;;;;;5.20;3.90;;;2.20;84.50;;;;;;4965218;28;20200;-80
2021/01/27 10:50:41;;;;;;;6.90;3.93;;;2.10;84.80;;;;;;4957413;28;20215;-79
2021/01/27 10:53:29;;;;;;;4.17;3.43;;;2.20;84.70;;;;;;4974069;28;20213;-79
2021/01/27 10:55:57;;;;;;;6.00;3.53;;;2.20;84.50;;;;;;4984201;28;20200;-79
2021/01/27 10:58:25;;;;;;;5.43;3.70;;;2.20;84.70;;;;;;4976116;28;20695;-78
2021/01/27 11:00:53;;;;;;;6.13;4.00;;;2.20;84.90;;;;;;4969680;28;20239;-78
2021/01/27 11:03:21;;;;;;;5.57;3.07;;;2.20;85.00;;;;;;4961886;28;20255;-82
2021/01/27 11:05:49;;;;;;;5.67;4.30;;;2.20;84.90;;;;;;4962694;28;20426;-79
2021/01/27 11:08:23;;;;;;;10.63;4.10;;;2.10;85.10;;;;;;4961211;28;20204;-78
2021/01/27 11:10:54;;;;;;;4.77;4.00;;;2.30;84.70;;;;;;4960305;28;20757;-79
2021/01/27 11:13:22;;;;;;;5.83;3.97;;;2.30;84.50;;;;;;4966886;28;20291;-80
2021/01/27 11:15:50;;;;;;;8.00;3.90;;;2.30;84.60;;;;;;4983205;28;20533;-80
2021/01/27 11:18:19;;;;;;;4.07;3.03;;;2.30;84.20;;;;;;4972271;28;20202;-79
2021/01/27 11:20:48;;;;;;;4.33;3.80;;;2.30;83.90;;;;;;4970054;28;20277;-77
2021/01/27 11:23:20;;;;;;;4.10;3.70;;;2.20;84.50;;;;;;4964096;28;20235;-80
2021/01/27 11:25:49;;;;;;;4.83;3.83;;;2.20;84.60;;;;;;4977617;28;20737;-80
2021/01/27 11:28:17;;;;;;;6.20;3.40;;;2.10;84.40;;;;;;4974208;28;20712;-80
2021/01/27 11:30:45;;;;;;;5.43;4.20;;;2.20;84.60;;;;;;4974193;28;20211;-79
2021/01/27 11:33:20;;;;;;;5.53;4.30;;;2.20;84.80;;;;;;4971749;28;20227;-79
2021/01/27 11:35:48;;;;;;;6.47;4.43;;;2.30;84.70;;;;;;4970268;28;20372;-80
2021/01/27 11:38:16;;;;;;;5.97;4.30;;;2.30;84.70;;;;;;4970688;28;20207;-80
2021/01/27 11:40:44;;;;;;;5.20;4.67;;;2.30;84.70;;;;;;4970998;28;20676;-81
2021/01/27 11:43:12;;;;;;;6.47;4.40;;;2.30;84.50;;;;;;4960882;28;20522;-79
2021/01/27 11:45:40;;;;;;;5.10;4.10;;;2.30;84.30;;;;;;4966265;28;20234;-80
2021/01/27 11:48:28;;;;;;;6.43;4.40;;;2.30;84.50;;;;;;4961488;28;20209;-79
2021/01/27 11:50:56;;;;;;;9.37;5.53;;;2.30;84.70;;;;;;4973970;28;20197;-78
2021/01/27 11:53:24;;;;;;;5.00;3.77;;;2.40;84.80;;;;;;4971068;28;20211;-80
2021/01/27 11:55:54;;;;;;;7.83;5.57;;;2.40;84.80;;;;;;4972683;28;20194;-80
2021/01/27 11:58:21;;;;;;;10.53;5.27;;;2.40;84.80;;;;;;4950075;28;20381;-80
2021/01/27 12:00:49;;;;;;;7.93;5.10;;;2.40;84.90;;;;;;4967181;28;20205;-80
2021/01/27 12:03:17;;;;;;;8.33;5.37;;;2.40;85.10;;;;;;4968130;28;20445;-81
2021/01/27 12:05:46;;;;;;;8.13;5.33;;;2.40;85.10;;;;;;4979237;28;21125;-81
2021/01/27 12:08:15;;;;;;;9.80;5.57;;;2.40;85.00;;;;;;4966971;28;20280;-81
2021/01/27 12:10:43;;;;;;;9.57;5.53;;;2.30;85.00;;;;;;4966565;28;20256;-81
2021/01/27 12:13:11;;;;;;;5.60;4.47;;;2.30;85.20;;;;;;4961118;28;20253;-81
2021/01/27 12:15:39;;;;;;;6.07;4.33;;;2.30;85.10;;;;;;4964541;28;20632;-81
2021/01/27 12:18:07;;;;;;;3.63;3.10;;;2.30;85.10;;;;;;4959431;28;20196;-81
2021/01/27 12:20:35;;;;;;;7.63;5.33;;;2.20;85.00;;;;;;4958961;28;21099;-79
2021/01/27 12:23:04;;;;;;;6.93;4.73;;;2.20;85.10;;;;;;4963160;28;20217;-81
2021/01/27 12:25:32;;;;;;;7.27;5.07;;;2.10;84.90;;;;;;4960447;28;21021;-80
2021/01/27 12:27:59;;;;;;;5.93;4.80;;;2.10;85.30;;;;;;4965743;28;20729;-80
2021/01/27 12:30:27;;;;;;;6.93;4.60;;;2.10;85.10;;;;;;4966120;28;20204;-80
2021/01/27 12:32:55;;;;;;;6.63;5.03;;;2.10;85.10;;;;;;4961032;28;20356;-80
2021/01/27 12:35:23;;;;;;;6.97;4.00;;;2.10;85.10;;;;;;4971167;28;20201;-79
2021/01/27 12:37:52;;;;;;;7.03;4.80;;;2.10;84.80;;;;;;4963622;28;20522;-78
2021/01/27 12:40:22;;;;;;;6.40;4.10;;;2.10;84.70;;;;;;4978109;28;20687;-80
2021/01/27 12:42:50;;;;;;;4.33;3.30;;;2.10;84.90;;;;;;4974241;28;20522;-79
2021/01/27 12:45:21;;;;;;;5.93;4.00;;;2.10;84.60;;;;;;4968793;28;20319;-81
2021/01/27 12:47:48;;;;;;;4.80;3.37;;;2.10;84.30;;;;;;4971648;28;20332;-79
2021/01/27 12:50:16;;;;;;;4.17;3.60;;;2.20;84.10;;;;;;4961063;28;20718;-81
2021/01/27 12:52:44;;;;;;;5.33;3.93;;;2.20;83.40;;;;;;4961342;28;20256;-78
2021/01/27 12:55:14;;;;;;;4.50;3.27;;;2.20;83.80;;;;;;4964432;28;20207;-77
2021/01/27 12:57:45;;;;;;;5.27;3.40;;;2.20;83.40;;;;;;4961667;28;20577;-80
2021/01/27 13:00:16;;;;;;;3.73;3.17;;;2.30;82.60;;;;;;4970784;28;20912;-80
2021/01/27 13:02:44;;;;;;;5.73;2.90;;;2.30;82.70;;;;;;4959560;28;20238;-78
2021/01/27 13:05:13;;;;;;;6.73;3.17;;;2.30;82.30;;;;;;4964530;28;20605;-79
2021/01/27 13:07:41;;;;;;;5.30;2.50;;;2.40;82.20;;;;;;4962274;28;20270;-80
2021/01/27 13:10:09;;;;;;;3.37;2.63;;;2.40;82.40;;;;;;4963789;28;20684;-80
2021/01/27 13:12:38;;;;;;;3.23;2.60;;;2.30;82.00;;;;;;4961111;28;20393;-79
2021/01/27 13:15:10;;;;;;;2.13;1.80;;;2.40;82.30;;;;;;4962139;28;21352;-79
2021/01/27 13:17:44;;;;;;;7.83;3.60;;;2.30;82.30;;;;;;4988858;28;20561;-78
2021/01/27 13:20:15;;;;;;;4.40;2.90;;;2.40;82.10;;;;;;4975228;28;20231;-79
2021/01/27 13:22:43;;;;;;;4.27;3.40;;;2.30;82.10;;;;;;4974000;28;20233;-79